sensor_id;sensor_type;location;lat;lon;timestamp;pressure;altitude;pressure_sealevel;temperature;humidity
46886;BME280;32622;48.202;11.326;2022-08-21T00:00:14;1017.95;;;19.33;29.98
46886;BME280;32622;48.202;11.326;2022-08-21T00:02:20;1017.82;;;19.75;29.59
46886;BME280;32622;48.202;11.326;2022-08-21T00:04:24;1018.02;;;19.08;30.15
46886;BME280;32622;48.202;11.326;2022-08-21T00:06:27;1018.00;;;19.04;29.84
46886;BME280;32622;48.202;11.326;2022-08-21T00:08:30;1017.99;;;19.07;29.76
46886;BME280;32622;48.202;11.326;2022-08-21T00:10:34;1017.94;;;19.47;29.73
46886;BME280;32622;48.202;11.326;2022-08-21T00:12:38;1017.90;;;19.52;29.72
46886;BME280;32622;48.202;11.326;2022-08-21T00:14:41;1018.04;;;18.88;30.47
46886;BME280;32622;48.202;11.326;2022-08-21T00:16:45;1017.88;;;19.57;29.67
46886;BME280;32622;48.202;11.326;2022-08-21T00:18:48;1017.89;;;19.48;29.65
46886;BME280;32622;48.202;11.326;2022-08-21T00:20:52;1017.82;;;19.72;29.52
46886;BME280;32622;48.202;11.326;2022-08-21T00:22:55;1017.88;;;19.43;29.71
46886;BME280;32622;48.202;11.326;2022-08-21T00:24:58;1018.00;;;19.03;30.08
46886;BME280;32622;48.202;11.326;2022-08-21T00:27:02;1017.99;;;19.00;29.92
46886;BME280;32622;48.202;11.326;2022-08-21T00:29:05;1018.09;;;18.80;30.29
46886;BME280;32622;48.202;11.326;2022-08-21T00:31:24;1017.88;;;19.54;29.63
46886;BME280;32622;48.202;11.326;2022-08-21T00:33:28;1018.00;;;19.01;30.03
46886;BME280;32622;48.202;11.326;2022-08-21T00:35:33;1017.98;;;19.10;29.98
46886;BME280;32622;48.202;11.326;2022-08-21T00:37:37;1017.90;;;19.44;29.94
46886;BME280;32622;48.202;11.326;2022-08-21T00:39:40;1017.94;;;18.96;29.64
46886;BME280;32622;48.202;11.326;2022-08-21T00:41:44;1017.92;;;19.20;29.73
46886;BME280;32622;48.202;11.326;2022-08-21T00:43:47;1017.96;;;18.95;29.66
46886;BME280;32622;48.202;11.326;2022-08-21T00:45:51;1018.02;;;18.64;30.08
46886;BME280;32622;48.202;11.326;2022-08-21T00:47:55;1018.00;;;18.64;30.32
46886;BME280;32622;48.202;11.326;2022-08-21T00:49:58;1018.09;;;18.23;30.64
46886;BME280;32622;48.202;11.326;2022-08-21T00:52:02;1018.04;;;18.45;30.57
46886;BME280;32622;48.202;11.326;2022-08-21T00:54:07;1018.09;;;18.26;30.73
46886;BME280;32622;48.202;11.326;2022-08-21T00:56:21;1017.94;;;19.04;30.00
46886;BME280;32622;48.202;11.326;2022-08-21T00:58:27;1017.96;;;18.78;30.09
46886;BME280;32622;48.202;11.326;2022-08-21T01:00:35;1017.97;;;18.77;30.10
46886;BME280;32622;48.202;11.326;2022-08-21T01:02:39;1018.06;;;18.23;30.79
46886;BME280;32622;48.202;11.326;2022-08-21T01:04:42;1018.18;;;17.47;31.35
46886;BME280;32622;48.202;11.326;2022-08-21T01:06:46;1018.00;;;18.37;30.44
46886;BME280;32622;48.202;11.326;2022-08-21T01:08:50;1017.91;;;18.49;30.24
46886;BME280;32622;48.202;11.326;2022-08-21T01:10:53;1018.06;;;17.58;30.96
46886;BME280;32622;48.202;11.326;2022-08-21T01:12:57;1017.95;;;18.16;30.41
46886;BME280;32622;48.202;11.326;2022-08-21T01:15:03;1018.03;;;17.62;31.32
46886;BME280;32622;48.202;11.326;2022-08-21T01:17:07;1018.08;;;17.33;31.19
46886;BME280;32622;48.202;11.326;2022-08-21T01:19:11;1017.97;;;17.81;30.93
46886;BME280;32622;48.202;11.326;2022-08-21T01:21:30;1017.94;;;17.93;30.41
46886;BME280;32622;48.202;11.326;2022-08-21T01:23:34;1017.89;;;18.37;30.69
46886;BME280;32622;48.202;11.326;2022-08-21T01:25:38;1017.86;;;18.59;30.10
46886;BME280;32622;48.202;11.326;2022-08-21T01:27:42;1017.94;;;18.21;30.18
46886;BME280;32622;48.202;11.326;2022-08-21T01:29:47;1017.99;;;17.92;30.72
46886;BME280;32622;48.202;11.326;2022-08-21T01:31:53;1017.95;;;17.97;30.28
46886;BME280;32622;48.202;11.326;2022-08-21T01:33:56;1017.81;;;18.51;30.50
46886;BME280;32622;48.202;11.326;2022-08-21T01:36:00;1017.93;;;17.88;30.52
46886;BME280;32622;48.202;11.326;2022-08-21T01:38:03;1017.85;;;18.28;29.97
46886;BME280;32622;48.202;11.326;2022-08-21T01:40:08;1017.87;;;18.18;29.87
46886;BME280;32622;48.202;11.326;2022-08-21T01:42:12;1018.15;;;16.74;31.53
46886;BME280;32622;48.202;11.326;2022-08-21T01:44:16;1017.96;;;17.73;31.27
46886;BME280;32622;48.202;11.326;2022-08-21T01:46:22;1017.98;;;17.81;30.87
46886;BME280;32622;48.202;11.326;2022-08-21T01:48:26;1017.94;;;17.90;30.98
46886;BME280;32622;48.202;11.326;2022-08-21T01:50:30;1017.96;;;17.62;31.29
46886;BME280;32622;48.202;11.326;2022-08-21T01:52:33;1017.90;;;18.00;30.88
46886;BME280;32622;48.202;11.326;2022-08-21T01:54:38;1017.93;;;17.80;30.43
46886;BME280;32622;48.202;11.326;2022-08-21T01:56:43;1017.77;;;18.42;30.12
46886;BME280;32622;48.202;11.326;2022-08-21T01:58:48;1017.82;;;18.13;30.12
46886;BME280;32622;48.202;11.326;2022-08-21T02:00:52;1017.85;;;18.06;30.06
46886;BME280;32622;48.202;11.326;2022-08-21T02:02:55;1017.79;;;18.22;29.91
46886;BME280;32622;48.202;11.326;2022-08-21T02:04:58;1017.72;;;18.37;29.86
46886;BME280;32622;48.202;11.326;2022-08-21T02:07:02;1017.70;;;18.31;29.87
46886;BME280;32622;48.202;11.326;2022-08-21T02:09:07;1017.66;;;18.48;29.74
46886;BME280;32622;48.202;11.326;2022-08-21T02:12:33;1017.14;;;20.73;30.10
46886;BME280;32622;48.202;11.326;2022-08-21T02:14:37;1017.72;;;17.85;30.40
46886;BME280;32622;48.202;11.326;2022-08-21T02:16:41;1017.55;;;18.61;30.21
46886;BME280;32622;48.202;11.326;2022-08-21T02:18:45;1017.45;;;18.96;29.93
46886;BME280;32622;48.202;11.326;2022-08-21T02:20:49;1017.53;;;18.65;29.83
46886;BME280;32622;48.202;11.326;2022-08-21T02:22:53;1017.61;;;18.22;29.90
46886;BME280;32622;48.202;11.326;2022-08-21T02:24:57;1017.60;;;18.36;29.62
46886;BME280;32622;48.202;11.326;2022-08-21T02:27:00;1017.63;;;18.15;30.25
46886;BME280;32622;48.202;11.326;2022-08-21T02:29:04;1017.53;;;18.70;29.62
46886;BME280;32622;48.202;11.326;2022-08-21T02:31:23;1017.53;;;18.69;29.57
46886;BME280;32622;48.202;11.326;2022-08-21T02:33:27;1017.55;;;18.62;29.55
46886;BME280;32622;48.202;11.326;2022-08-21T02:35:32;1017.59;;;18.49;29.42
46886;BME280;32622;48.202;11.326;2022-08-21T02:37:43;1017.58;;;18.55;29.38
46886;BME280;32622;48.202;11.326;2022-08-21T02:39:47;1017.51;;;18.72;29.32
46886;BME280;32622;48.202;11.326;2022-08-21T02:41:50;1017.57;;;18.53;29.25
46886;BME280;32622;48.202;11.326;2022-08-21T02:43:53;1017.57;;;18.61;29.27
46886;BME280;32622;48.202;11.326;2022-08-21T02:45:57;1017.62;;;18.38;29.38
46886;BME280;32622;48.202;11.326;2022-08-21T02:48:04;1017.56;;;18.68;29.19
46886;BME280;32622;48.202;11.326;2022-08-21T02:50:08;1017.54;;;18.68;29.16
46886;BME280;32622;48.202;11.326;2022-08-21T02:52:11;1017.53;;;18.67;29.14
46886;BME280;32622;48.202;11.326;2022-08-21T02:54:14;1017.53;;;18.79;29.01
46886;BME280;32622;48.202;11.326;2022-08-21T02:56:25;1017.51;;;18.84;28.96
46886;BME280;32622;48.202;11.326;2022-08-21T02:58:30;1017.49;;;18.67;29.06
46886;BME280;32622;48.202;11.326;2022-08-21T03:00:35;1017.51;;;18.53;29.14
46886;BME280;32622;48.202;11.326;2022-08-21T03:02:39;1017.46;;;18.82;28.97
46886;BME280;32622;48.202;11.326;2022-08-21T03:04:43;1017.52;;;18.53;28.89
46886;BME280;32622;48.202;11.326;2022-08-21T03:06:46;1017.60;;;17.97;29.32
46886;BME280;32622;48.202;11.326;2022-08-21T03:08:49;1017.41;;;18.78;29.05
46886;BME280;32622;48.202;11.326;2022-08-21T03:10:53;1017.42;;;18.62;29.05
46886;BME280;32622;48.202;11.326;2022-08-21T03:12:57;1017.45;;;18.60;29.07
46886;BME280;32622;48.202;11.326;2022-08-21T03:15:00;1017.44;;;18.83;28.92
46886;BME280;32622;48.202;11.326;2022-08-21T03:17:03;1017.45;;;18.67;28.98
46886;BME280;32622;48.202;11.326;2022-08-21T03:19:06;1017.56;;;18.37;28.93
46886;BME280;32622;48.202;11.326;2022-08-21T03:21:25;1017.50;;;18.69;28.73
46886;BME280;32622;48.202;11.326;2022-08-21T03:23:29;1017.52;;;18.63;28.98
46886;BME280;32622;48.202;11.326;2022-08-21T03:25:32;1017.58;;;18.49;29.06
46886;BME280;32622;48.202;11.326;2022-08-21T03:27:37;1017.55;;;18.59;28.92
46886;BME280;32622;48.202;11.326;2022-08-21T03:29:41;1017.58;;;18.52;28.86
46886;BME280;32622;48.202;11.326;2022-08-21T03:31:44;1017.50;;;18.95;28.53
46886;BME280;32622;48.202;11.326;2022-08-21T03:33:47;1017.71;;;17.84;28.89
46886;BME280;32622;48.202;11.326;2022-08-21T03:35:57;1017.52;;;18.72;28.72
46886;BME280;32622;48.202;11.326;2022-08-21T03:38:01;1017.56;;;18.54;28.90
46886;BME280;32622;48.202;11.326;2022-08-21T03:40:06;1017.52;;;18.73;28.67
46886;BME280;32622;48.202;11.326;2022-08-21T03:42:10;1017.59;;;18.26;28.74
46886;BME280;32622;48.202;11.326;2022-08-21T03:44:14;1017.47;;;18.78;28.54
46886;BME280;32622;48.202;11.326;2022-08-21T03:46:24;1017.55;;;18.48;28.45
46886;BME280;32622;48.202;11.326;2022-08-21T03:48:28;1017.48;;;18.81;28.60
46886;BME280;32622;48.202;11.326;2022-08-21T03:50:36;1017.58;;;18.31;28.63
46886;BME280;32622;48.202;11.326;2022-08-21T03:52:39;1017.55;;;18.56;28.58
46886;BME280;32622;48.202;11.326;2022-08-21T03:55:17;1017.10;;;20.82;28.44
46886;BME280;32622;48.202;11.326;2022-08-21T03:57:20;1017.57;;;18.76;28.51
46886;BME280;32622;48.202;11.326;2022-08-21T03:59:24;1017.78;;;17.73;28.65
46886;BME280;32622;48.202;11.326;2022-08-21T04:01:27;1017.79;;;17.76;29.08
46886;BME280;32622;48.202;11.326;2022-08-21T04:03:30;1017.81;;;17.78;28.65
46886;BME280;32622;48.202;11.326;2022-08-21T04:05:34;1017.80;;;18.14;28.40
46886;BME280;32622;48.202;11.326;2022-08-21T04:07:37;1017.84;;;17.97;28.53
46886;BME280;32622;48.202;11.326;2022-08-21T04:09:40;1017.83;;;18.00;28.07
46886;BME280;32622;48.202;11.326;2022-08-21T04:11:44;1017.83;;;17.99;28.10
46886;BME280;32622;48.202;11.326;2022-08-21T04:13:47;1017.84;;;17.94;28.34
46886;BME280;32622;48.202;11.326;2022-08-21T04:15:50;1017.90;;;17.80;28.33
46886;BME280;32622;48.202;11.326;2022-08-21T04:17:54;1017.97;;;17.42;28.85
46886;BME280;32622;48.202;11.326;2022-08-21T04:19:57;1018.00;;;17.39;28.35
46886;BME280;32622;48.202;11.326;2022-08-21T04:22:00;1017.87;;;17.89;28.46
46886;BME280;32622;48.202;11.326;2022-08-21T04:24:04;1017.86;;;18.18;28.25
46886;BME280;32622;48.202;11.326;2022-08-21T04:26:08;1017.92;;;17.70;28.55
46886;BME280;32622;48.202;11.326;2022-08-21T04:28:11;1017.89;;;17.86;28.41
46886;BME280;32622;48.202;11.326;2022-08-21T04:30:15;1018.05;;;17.14;28.41
46886;BME280;32622;48.202;11.326;2022-08-21T04:32:22;1017.92;;;17.77;28.54
46886;BME280;32622;48.202;11.326;2022-08-21T04:34:26;1017.91;;;17.85;28.41
46886;BME280;32622;48.202;11.326;2022-08-21T04:36:36;1017.89;;;17.94;28.33
46886;BME280;32622;48.202;11.326;2022-08-21T04:38:39;1018.14;;;16.90;29.03
46886;BME280;32622;48.202;11.326;2022-08-21T04:40:43;1018.08;;;17.27;29.13
46886;BME280;32622;48.202;11.326;2022-08-21T04:42:48;1018.07;;;17.33;28.69
46886;BME280;32622;48.202;11.326;2022-08-21T04:44:53;1018.01;;;17.55;28.69
46886;BME280;32622;48.202;11.326;2022-08-21T04:46:56;1017.90;;;18.11;28.29
46886;BME280;32622;48.202;11.326;2022-08-21T04:48:59;1017.99;;;17.86;28.48
46886;BME280;32622;48.202;11.326;2022-08-21T04:51:22;1018.07;;;17.53;28.37
46886;BME280;32622;48.202;11.326;2022-08-21T04:53:31;1018.11;;;17.65;28.40
46886;BME280;32622;48.202;11.326;2022-08-21T04:55:36;1018.04;;;18.21;28.35
46886;BME280;32622;48.202;11.326;2022-08-21T04:57:41;1018.18;;;17.74;28.37
46886;BME280;32622;48.202;11.326;2022-08-21T04:59:47;1017.95;;;18.60;28.11
46886;BME280;32622;48.202;11.326;2022-08-21T05:01:53;1017.84;;;19.10;27.93
46886;BME280;32622;48.202;11.326;2022-08-21T05:03:59;1017.88;;;18.76;27.60
46886;BME280;32622;48.202;11.326;2022-08-21T05:06:06;1017.80;;;19.19;27.32
46886;BME280;32622;48.202;11.326;2022-08-21T05:08:13;1017.91;;;18.74;27.24
46886;BME280;32622;48.202;11.326;2022-08-21T05:10:18;1017.81;;;19.11;27.05
46886;BME280;32622;48.202;11.326;2022-08-21T05:12:22;1017.80;;;19.35;26.79
46886;BME280;32622;48.202;11.326;2022-08-21T05:14:26;1017.70;;;19.70;26.81
46886;BME280;32622;48.202;11.326;2022-08-21T05:16:30;1017.64;;;19.99;26.39
46886;BME280;32622;48.202;11.326;2022-08-21T05:18:33;1017.73;;;19.64;26.16
46886;BME280;32622;48.202;11.326;2022-08-21T05:20:37;1017.73;;;19.61;26.15
46886;BME280;32622;48.202;11.326;2022-08-21T05:22:40;1017.65;;;19.94;25.84
46886;BME280;32622;48.202;11.326;2022-08-21T05:24:43;1017.64;;;19.97;25.80
46886;BME280;32622;48.202;11.326;2022-08-21T05:26:46;1017.68;;;19.89;25.79
46886;BME280;32622;48.202;11.326;2022-08-21T05:28:50;1017.71;;;19.65;25.75
46886;BME280;32622;48.202;11.326;2022-08-21T05:30:53;1017.63;;;20.09;25.71
46886;BME280;32622;48.202;11.326;2022-08-21T05:32:58;1017.48;;;20.96;25.12
46886;BME280;32622;48.202;11.326;2022-08-21T05:35:04;1017.42;;;21.38;24.89
46886;BME280;32622;48.202;11.326;2022-08-21T05:37:15;1017.47;;;21.16;24.89
46886;BME280;32622;48.202;11.326;2022-08-21T05:39:18;1017.51;;;20.89;24.76
46886;BME280;32622;48.202;11.326;2022-08-21T05:41:22;1017.38;;;21.33;24.55
46886;BME280;32622;48.202;11.326;2022-08-21T05:43:25;1017.54;;;20.76;24.33
46886;BME280;32622;48.202;11.326;2022-08-21T05:45:32;1017.41;;;21.27;24.32
46886;BME280;32622;48.202;11.326;2022-08-21T05:47:35;1017.36;;;21.76;24.11
46886;BME280;32622;48.202;11.326;2022-08-21T05:49:38;1017.52;;;21.09;24.20
46886;BME280;32622;48.202;11.326;2022-08-21T05:52:19;1016.88;;;24.54;23.97
46886;BME280;32622;48.202;11.326;2022-08-21T05:54:23;1017.43;;;21.62;23.89
46886;BME280;32622;48.202;11.326;2022-08-21T05:56:26;1017.40;;;21.92;23.76
46886;BME280;32622;48.202;11.326;2022-08-21T05:58:31;1017.44;;;21.78;23.29
46886;BME280;32622;48.202;11.326;2022-08-21T06:00:35;1017.26;;;22.63;23.39
46886;BME280;32622;48.202;11.326;2022-08-21T06:02:39;1017.14;;;23.00;22.91
46886;BME280;32622;48.202;11.326;2022-08-21T06:04:42;1017.17;;;22.93;22.67
46886;BME280;32622;48.202;11.326;2022-08-21T06:07:00;1017.05;;;23.45;22.34
46886;BME280;32622;48.202;11.326;2022-08-21T06:09:04;1017.06;;;23.28;22.25
46886;BME280;32622;48.202;11.326;2022-08-21T06:11:08;1016.96;;;23.70;21.99
46886;BME280;32622;48.202;11.326;2022-08-21T06:13:12;1016.89;;;24.06;21.49
46886;BME280;32622;48.202;11.326;2022-08-21T06:15:16;1016.98;;;23.58;21.56
46886;BME280;32622;48.202;11.326;2022-08-21T06:17:19;1016.92;;;23.92;21.42
46886;BME280;32622;48.202;11.326;2022-08-21T06:19:22;1016.85;;;24.38;21.24
46886;BME280;32622;48.202;11.326;2022-08-21T06:21:41;1016.94;;;24.05;20.82
46886;BME280;32622;48.202;11.326;2022-08-21T06:23:45;1016.84;;;24.56;20.57
46886;BME280;32622;48.202;11.326;2022-08-21T06:25:48;1016.98;;;23.94;20.75
46886;BME280;32622;48.202;11.326;2022-08-21T06:27:51;1016.95;;;24.19;20.78
46886;BME280;32622;48.202;11.326;2022-08-21T06:29:55;1016.89;;;24.62;21.47
46886;BME280;32622;48.202;11.326;2022-08-21T06:31:58;1016.79;;;24.99;20.65
46886;BME280;32622;48.202;11.326;2022-08-21T06:34:02;1016.83;;;24.86;20.75
46886;BME280;32622;48.202;11.326;2022-08-21T06:36:05;1016.90;;;24.46;20.46
46886;BME280;32622;48.202;11.326;2022-08-21T06:38:09;1016.89;;;24.51;20.59
46886;BME280;32622;48.202;11.326;2022-08-21T06:40:13;1016.94;;;24.10;20.41
46886;BME280;32622;48.202;11.326;2022-08-21T06:42:17;1016.95;;;23.92;20.72
46886;BME280;32622;48.202;11.326;2022-08-21T06:44:20;1016.65;;;25.41;20.38
46886;BME280;32622;48.202;11.326;2022-08-21T06:46:39;1016.71;;;25.06;19.87
46886;BME280;32622;48.202;11.326;2022-08-21T06:48:43;1016.73;;;25.03;20.37
46886;BME280;32622;48.202;11.326;2022-08-21T06:50:47;1016.66;;;25.17;19.08
46886;BME280;32622;48.202;11.326;2022-08-21T06:52:59;1016.62;;;25.38;19.57
46886;BME280;32622;48.202;11.326;2022-08-21T06:55:03;1016.58;;;25.48;19.78
46886;BME280;32622;48.202;11.326;2022-08-21T06:57:07;1016.62;;;25.31;19.77
46886;BME280;32622;48.202;11.326;2022-08-21T06:59:10;1016.55;;;25.62;19.94
46886;BME280;32622;48.202;11.326;2022-08-21T07:01:29;1016.37;;;26.33;19.15
46886;BME280;32622;48.202;11.326;2022-08-21T07:03:34;1016.42;;;25.92;18.81
46886;BME280;32622;48.202;11.326;2022-08-21T07:05:39;1016.37;;;26.06;18.81
46886;BME280;32622;48.202;11.326;2022-08-21T07:07:42;1016.33;;;26.16;18.86
46886;BME280;32622;48.202;11.326;2022-08-21T07:09:46;1016.19;;;26.90;19.00
46886;BME280;32622;48.202;11.326;2022-08-21T07:12:05;1016.25;;;26.53;18.16
46886;BME280;32622;48.202;11.326;2022-08-21T07:14:08;1016.19;;;26.86;18.61
46886;BME280;32622;48.202;11.326;2022-08-21T07:16:44;1015.75;;;29.18;18.43
46886;BME280;32622;48.202;11.326;2022-08-21T07:18:48;1016.30;;;26.42;18.59
46886;BME280;32622;48.202;11.326;2022-08-21T07:20:52;1016.26;;;26.58;17.62
46886;BME280;32622;48.202;11.326;2022-08-21T07:22:55;1016.14;;;27.37;18.08
46886;BME280;32622;48.202;11.326;2022-08-21T07:24:59;1016.12;;;27.33;16.89
46886;BME280;32622;48.202;11.326;2022-08-21T07:27:02;1016.04;;;27.42;17.11
46886;BME280;32622;48.202;11.326;2022-08-21T07:29:06;1016.11;;;27.36;17.38
46886;BME280;32622;48.202;11.326;2022-08-21T07:31:11;1016.11;;;27.30;17.07
46886;BME280;32622;48.202;11.326;2022-08-21T07:33:15;1016.16;;;26.88;17.55
46886;BME280;32622;48.202;11.326;2022-08-21T07:35:20;1016.16;;;26.98;17.53
46886;BME280;32622;48.202;11.326;2022-08-21T07:37:56;1015.67;;;29.45;17.73
46886;BME280;32622;48.202;11.326;2022-08-21T07:39:59;1016.33;;;26.13;17.80
46886;BME280;32622;48.202;11.326;2022-08-21T07:42:18;1016.16;;;26.91;17.58
46886;BME280;32622;48.202;11.326;2022-08-21T07:44:22;1016.01;;;27.88;18.21
46886;BME280;32622;48.202;11.326;2022-08-21T07:48:59;1016.24;;;26.62;17.50
46886;BME280;32622;48.202;11.326;2022-08-21T07:51:13;1016.03;;;27.55;17.11
46886;BME280;32622;48.202;11.326;2022-08-21T07:53:17;1016.00;;;27.63;17.68
46886;BME280;32622;48.202;11.326;2022-08-21T07:55:21;1015.83;;;28.19;17.00
46886;BME280;32622;48.202;11.326;2022-08-21T07:58:31;1015.14;;;31.42;16.94
46886;BME280;32622;48.202;11.326;2022-08-21T08:00:34;1016.08;;;26.72;17.63
46886;BME280;32622;48.202;11.326;2022-08-21T08:02:38;1015.87;;;27.59;17.39
46886;BME280;32622;48.202;11.326;2022-08-21T08:04:41;1015.80;;;27.97;17.47
46886;BME280;32622;48.202;11.326;2022-08-21T08:08:07;1015.02;;;31.86;17.29
46886;BME280;32622;48.202;11.326;2022-08-21T08:10:10;1015.80;;;27.92;17.40
46886;BME280;32622;48.202;11.326;2022-08-21T08:12:47;1015.26;;;30.65;17.24
46886;BME280;32622;48.202;11.326;2022-08-21T08:14:50;1015.81;;;27.91;17.76
46886;BME280;32622;48.202;11.326;2022-08-21T08:17:27;1015.09;;;31.46;16.88
46886;BME280;32622;48.202;11.326;2022-08-21T08:19:30;1015.94;;;27.41;17.77
46886;BME280;32622;48.202;11.326;2022-08-21T08:24:06;1015.89;;;27.60;17.45
46886;BME280;32622;48.202;11.326;2022-08-21T08:26:09;1015.64;;;28.61;17.66
46886;BME280;32622;48.202;11.326;2022-08-21T08:28:13;1015.65;;;28.50;17.13
46886;BME280;32622;48.202;11.326;2022-08-21T08:30:18;1015.57;;;28.95;17.16
46886;BME280;32622;48.202;11.326;2022-08-21T08:33:44;1014.91;;;32.17;17.05
46886;BME280;32622;48.202;11.326;2022-08-21T08:35:49;1015.61;;;28.62;17.49
46886;BME280;32622;48.202;11.326;2022-08-21T08:38:26;1015.12;;;31.04;17.36
46886;BME280;32622;48.202;11.326;2022-08-21T08:40:35;1015.65;;;28.32;17.79
46886;BME280;32622;48.202;11.326;2022-08-21T08:42:41;1015.61;;;28.37;17.70
46886;BME280;32622;48.202;11.326;2022-08-21T08:44:45;1015.54;;;28.72;17.64
46886;BME280;32622;48.202;11.326;2022-08-21T08:46:50;1015.76;;;27.69;17.61
46886;BME280;32622;48.202;11.326;2022-08-21T08:48:58;1015.61;;;28.33;17.65
46886;BME280;32622;48.202;11.326;2022-08-21T08:51:06;1015.46;;;29.17;17.22
46886;BME280;32622;48.202;11.326;2022-08-21T08:53:15;1015.41;;;29.40;17.08
46886;BME280;32622;48.202;11.326;2022-08-21T08:55:23;1015.41;;;29.26;17.39
46886;BME280;32622;48.202;11.326;2022-08-21T08:57:28;1015.51;;;29.10;17.54
46886;BME280;32622;48.202;11.326;2022-08-21T08:59:38;1015.59;;;28.50;17.75
46886;BME280;32622;48.202;11.326;2022-08-21T09:02:51;1014.88;;;32.14;17.48
46886;BME280;32622;48.202;11.326;2022-08-21T09:04:56;1015.67;;;28.14;17.67
46886;BME280;32622;48.202;11.326;2022-08-21T09:08:28;1014.92;;;31.92;18.08
46886;BME280;32622;48.202;11.326;2022-08-21T09:10:41;1015.41;;;29.35;18.00
46886;BME280;32622;48.202;11.326;2022-08-21T09:13:07;1015.43;;;29.31;17.94
46886;BME280;32622;48.202;11.326;2022-08-21T09:15:22;1015.49;;;28.83;17.65
46886;BME280;32622;48.202;11.326;2022-08-21T09:18:41;1014.80;;;32.31;17.75
46886;BME280;32622;48.202;11.326;2022-08-21T09:21:01;1015.61;;;28.26;18.45
46886;BME280;32622;48.202;11.326;2022-08-21T09:23:27;1015.55;;;28.51;18.62
46886;BME280;32622;48.202;11.326;2022-08-21T09:25:40;1015.39;;;29.16;17.61
46886;BME280;32622;48.202;11.326;2022-08-21T09:27:44;1015.32;;;29.45;17.65
46886;BME280;32622;48.202;11.326;2022-08-21T09:29:51;1015.36;;;29.45;17.89
46886;BME280;32622;48.202;11.326;2022-08-21T09:32:29;1014.99;;;30.98;18.14
46886;BME280;32622;48.202;11.326;2022-08-21T09:34:33;1015.49;;;28.39;18.64
46886;BME280;32622;48.202;11.326;2022-08-21T09:36:39;1015.59;;;27.91;18.68
46886;BME280;32622;48.202;11.326;2022-08-21T09:38:53;1015.30;;;29.16;17.71
46886;BME280;32622;48.202;11.326;2022-08-21T09:41:00;1015.31;;;29.21;17.61
46886;BME280;32622;48.202;11.326;2022-08-21T09:43:21;1015.39;;;28.69;18.23
46886;BME280;32622;48.202;11.326;2022-08-21T09:45:26;1015.24;;;29.52;17.86
46886;BME280;32622;48.202;11.326;2022-08-21T09:48:46;1014.59;;;32.77;17.52
46886;BME280;32622;48.202;11.326;2022-08-21T09:50:52;1015.64;;;27.47;19.24
46886;BME280;32622;48.202;11.326;2022-08-21T09:53:03;1015.46;;;28.32;17.95
46886;BME280;32622;48.202;11.326;2022-08-21T09:55:32;1015.04;;;30.03;17.67
46886;BME280;32622;48.202;11.326;2022-08-21T09:58:58;1014.67;;;32.09;18.11
46886;BME280;32622;48.202;11.326;2022-08-21T10:01:03;1015.34;;;28.40;18.32
46886;BME280;32622;48.202;11.326;2022-08-21T10:04:13;1014.85;;;30.97;18.45
46886;BME280;32622;48.202;11.326;2022-08-21T10:06:24;1015.47;;;28.05;18.48
46886;BME280;32622;48.202;11.326;2022-08-21T10:09:06;1015.38;;;28.51;19.08
46886;BME280;32622;48.202;11.326;2022-08-21T10:11:13;1015.47;;;27.79;18.85
46886;BME280;32622;48.202;11.326;2022-08-21T10:13:21;1015.55;;;27.40;18.99
46886;BME280;32622;48.202;11.326;2022-08-21T10:15:36;1015.53;;;27.55;19.08
46886;BME280;32622;48.202;11.326;2022-08-21T10:17:52;1015.56;;;27.30;18.65
46886;BME280;32622;48.202;11.326;2022-08-21T10:20:04;1015.63;;;27.09;19.36
46886;BME280;32622;48.202;11.326;2022-08-21T10:24:06;1015.05;;;30.14;19.62
46886;BME280;32622;48.202;11.326;2022-08-21T10:26:22;1015.64;;;27.04;19.35
46886;BME280;32622;48.202;11.326;2022-08-21T10:28:49;1015.70;;;26.64;19.49
46886;BME280;32622;48.202;11.326;2022-08-21T10:31:02;1015.56;;;27.26;19.97
46886;BME280;32622;48.202;11.326;2022-08-21T10:33:50;1015.26;;;28.52;20.12
46886;BME280;32622;48.202;11.326;2022-08-21T10:36:04;1015.85;;;25.33;20.10
46886;BME280;32622;48.202;11.326;2022-08-21T10:39:06;1015.42;;;27.36;20.75
46886;BME280;32622;48.202;11.326;2022-08-21T10:41:21;1015.79;;;25.33;20.55
46886;BME280;32622;48.202;11.326;2022-08-21T10:44:12;1015.05;;;29.17;20.10
46886;BME280;32622;48.202;11.326;2022-08-21T10:46:30;1015.58;;;26.29;20.11
46886;BME280;32622;48.202;11.326;2022-08-21T10:49:19;1014.95;;;29.69;19.02
46886;BME280;32622;48.202;11.326;2022-08-21T10:51:31;1015.73;;;25.54;19.98
46886;BME280;32622;48.202;11.326;2022-08-21T10:53:59;1015.88;;;24.90;19.78
46886;BME280;32622;48.202;11.326;2022-08-21T10:56:18;1015.70;;;25.68;19.35
46886;BME280;32622;48.202;11.326;2022-08-21T10:59:09;1015.28;;;27.97;19.01
46886;BME280;32622;48.202;11.326;2022-08-21T11:01:22;1016.41;;;22.51;21.44
46886;BME280;32622;48.202;11.326;2022-08-21T11:04:12;1015.88;;;24.92;21.74
46886;BME280;32622;48.202;11.326;2022-08-21T11:06:19;1016.64;;;20.75;22.78
46886;BME280;32622;48.202;11.326;2022-08-21T11:10:59;1015.29;;;27.21;20.91
46886;BME280;32622;48.202;11.326;2022-08-21T11:13:07;1016.08;;;23.42;21.64
46886;BME280;32622;48.202;11.326;2022-08-21T11:15:28;1016.05;;;23.56;22.08
46886;BME280;32622;48.202;11.326;2022-08-21T11:17:39;1016.09;;;23.07;21.38
46886;BME280;32622;48.202;11.326;2022-08-21T11:19:48;1016.03;;;22.88;20.76
46886;BME280;32622;48.202;11.326;2022-08-21T11:21:58;1015.73;;;24.19;19.89
46886;BME280;32622;48.202;11.326;2022-08-21T11:24:15;1015.85;;;23.61;20.11
46886;BME280;32622;48.202;11.326;2022-08-21T11:26:27;1015.85;;;23.59;20.74
46886;BME280;32622;48.202;11.326;2022-08-21T11:28:36;1015.81;;;23.76;21.35
46886;BME280;32622;48.202;11.326;2022-08-21T11:30:54;1015.58;;;24.87;20.36
46886;BME280;32622;48.202;11.326;2022-08-21T11:33:10;1015.71;;;24.07;18.60
46886;BME280;32622;48.202;11.326;2022-08-21T11:35:23;1015.65;;;24.50;17.78
46886;BME280;32622;48.202;11.326;2022-08-21T11:37:50;1015.53;;;25.17;17.89
46886;BME280;32622;48.202;11.326;2022-08-21T11:40:05;1015.45;;;25.28;18.98